LOT22 KLAX-EPWA
Flight info
| Callsign | LOT22 |
|---|---|
| Flight time | N/A |
| Altitude | 37000 |
| Route | OSHNN1 BEALE Q842 WINEN DCT REEKA DCT PECKK DCT GGW DCT DURUR DCT YTH DCT 59N090W 63N080W/N0500F390 66N070W/M085F390 DCT BOPUT DCT 70N050W 70N040W 70N030W 69N020W 67N010W DCT ISVIG/N0487F410 DCT BOMGU DCT PENOR DCT GRUDA N191 SORIX |
| Aircraft | B789/H-SDE1E2E3FGHIJ2J3J4J5M1RWXY/LB1D1 |
Departure
| Time | 2026-05-01 08:37 |
|---|---|
| Airport | Los Angeles International Airport (KLAX) |
Arrival
| Time | N/A |
|---|---|
| Airport | Warsaw Chopin Airport (EPWA) |
| Time | Latitude | Longitude | Altitude | Speed | Heading |
|---|---|---|---|---|---|
| 2026-05-01 08:09 | 33.94100 | -118.41082 | 98 ft | 0 kts | 83° |
| 2026-05-01 08:24 | 33.94098 | -118.41103 | 100 ft | 3 kts | 83° |
| 2026-05-01 08:25 | 33.94095 | -118.41125 | 98 ft | 3 kts | 83° |
| 2026-05-01 08:25 | 33.94091 | -118.41149 | 97 ft | 3 kts | 60° |
| 2026-05-01 08:25 | 33.94078 | -118.41168 | 97 ft | 3 kts | 36° |
| 2026-05-01 08:25 | 33.94061 | -118.41180 | 96 ft | 3 kts | 12° |
| 2026-05-01 08:26 | 33.94042 | -118.41182 | 97 ft | 3 kts | 351° |
| 2026-05-01 08:26 | 33.94036 | -118.41181 | 97 ft | 0 kts | 351° |
| 2026-05-01 08:29 | 33.94047 | -118.41183 | 100 ft | 5 kts | 352° |
| 2026-05-01 08:29 | 33.94095 | -118.41192 | 100 ft | 8 kts | 351° |
| 2026-05-01 08:29 | 33.94147 | -118.41201 | 99 ft | 8 kts | 351° |
| 2026-05-01 08:30 | 33.94202 | -118.41210 | 99 ft | 8 kts | 352° |
| 2026-05-01 08:30 | 33.94257 | -118.41219 | 99 ft | 8 kts | 353° |
| 2026-05-01 08:30 | 33.94316 | -118.41228 | 100 ft | 9 kts | 353° |
| 2026-05-01 08:30 | 33.94375 | -118.41237 | 99 ft | 9 kts | 353° |
| 2026-05-01 08:31 | 33.94436 | -118.41246 | 99 ft | 9 kts | 353° |
| 2026-05-01 08:31 | 33.94498 | -118.41255 | 99 ft | 9 kts | 353° |
| 2026-05-01 08:31 | 33.94561 | -118.41264 | 99 ft | 9 kts | 353° |
| 2026-05-01 08:31 | 33.94624 | -118.41274 | 100 ft | 9 kts | 353° |
| 2026-05-01 08:32 | 33.94687 | -118.41283 | 100 ft | 9 kts | 353° |
| 2026-05-01 08:32 | 33.94753 | -118.41288 | 100 ft | 9 kts | 9° |
| 2026-05-01 08:32 | 33.94795 | -118.41234 | 102 ft | 11 kts | 70° |
| 2026-05-01 08:32 | 33.94807 | -118.41147 | 101 ft | 11 kts | 83° |
| 2026-05-01 08:33 | 33.94816 | -118.41059 | 102 ft | 11 kts | 83° |
| 2026-05-01 08:33 | 33.94825 | -118.40967 | 102 ft | 12 kts | 83° |
| 2026-05-01 08:33 | 33.94835 | -118.40868 | 100 ft | 12 kts | 83° |
| 2026-05-01 08:33 | 33.94846 | -118.40765 | 100 ft | 12 kts | 83° |
| 2026-05-01 08:34 | 33.94856 | -118.40662 | 100 ft | 12 kts | 83° |
| 2026-05-01 08:34 | 33.94866 | -118.40561 | 101 ft | 12 kts | 83° |
| 2026-05-01 08:34 | 33.94877 | -118.40452 | 102 ft | 13 kts | 83° |
| 2026-05-01 08:34 | 33.94899 | -118.40351 | 102 ft | 11 kts | 58° |
| 2026-05-01 08:35 | 33.94951 | -118.40294 | 102 ft | 8 kts | 21° |
| 2026-05-01 08:35 | 33.94989 | -118.40302 | 103 ft | 5 kts | 338° |
| 2026-05-01 08:35 | 33.95001 | -118.40326 | 103 ft | 3 kts | 285° |
| 2026-05-01 08:35 | 33.95000 | -118.40350 | 103 ft | 0 kts | 263° |
| 2026-05-01 08:36 | 33.94999 | -118.40358 | 103 ft | 2 kts | 263° |
| 2026-05-01 08:36 | 33.94998 | -118.40371 | 103 ft | 0 kts | 263° |
| 2026-05-01 08:36 | 33.94995 | -118.40395 | 102 ft | 13 kts | 263° |
| 2026-05-01 08:37 | 33.94962 | -118.40732 | 103 ft | 73 kts | 263° |
| 2026-05-01 08:37 | 33.94873 | -118.41610 | 103 ft | 136 kts | 263° |
| 2026-05-01 08:37 | 33.94732 | -118.42968 | 114 ft | 188 kts | 263° |
| 2026-05-01 08:37 | 33.94577 | -118.44518 | 1033 ft | 181 kts | 263° |
| 2026-05-01 08:38 | 33.94438 | -118.46037 | 1977 ft | 181 kts | 263° |
| 2026-05-01 08:38 | 33.94301 | -118.47543 | 2622 ft | 185 kts | 263° |
| 2026-05-01 08:38 | 33.94127 | -118.49192 | 2868 ft | 211 kts | 263° |
| 2026-05-01 08:38 | 33.93924 | -118.51024 | 3169 ft | 235 kts | 263° |
| 2026-05-01 08:39 | 33.93686 | -118.53056 | 3584 ft | 257 kts | 263° |
| 2026-05-01 08:39 | 33.93425 | -118.55177 | 4566 ft | 255 kts | 263° |
| 2026-05-01 08:39 | 33.93141 | -118.57306 | 5433 ft | 259 kts | 263° |
| 2026-05-01 08:39 | 33.92854 | -118.59436 | 6393 ft | 258 kts | 263° |
| 2026-05-01 08:40 | 33.90842 | -118.62829 | 7905 ft | 272 kts | 198° |
| 2026-05-01 08:40 | 33.88965 | -118.63207 | 8668 ft | 276 kts | 184° |
| 2026-05-01 08:40 | 33.87041 | -118.63297 | 9491 ft | 277 kts | 181° |
| 2026-05-01 08:41 | 33.85102 | -118.63342 | 10271 ft | 280 kts | 180° |
| 2026-05-01 08:41 | 33.83131 | -118.63206 | 10826 ft | 288 kts | 161° |
| 2026-05-01 08:41 | 33.81406 | -118.61999 | 11485 ft | 292 kts | 141° |
| 2026-05-01 08:41 | 33.79844 | -118.60401 | 12080 ft | 298 kts | 140° |
| 2026-05-01 08:42 | 33.78186 | -118.58857 | 12704 ft | 305 kts | 145° |
| 2026-05-01 08:42 | 33.76389 | -118.57447 | 13335 ft | 312 kts | 148° |
| 2026-05-01 08:42 | 33.74568 | -118.56043 | 13940 ft | 318 kts | 146° |
| 2026-05-01 08:42 | 33.72666 | -118.54498 | 14080 ft | 343 kts | 145° |
| 2026-05-01 08:43 | 33.70674 | -118.52741 | 14127 ft | 368 kts | 135° |
| 2026-05-01 08:43 | 33.69150 | -118.50189 | 14225 ft | 387 kts | 112° |
| 2026-05-01 08:43 | 33.68144 | -118.47104 | 14310 ft | 406 kts | 107° |
| 2026-05-01 08:43 | 33.67275 | -118.43825 | 14806 ft | 412 kts | 105° |
| 2026-05-01 08:44 | 33.66363 | -118.40550 | 15409 ft | 416 kts | 108° |
| 2026-05-01 08:44 | 33.65348 | -118.37274 | 15967 ft | 421 kts | 109° |
| 2026-05-01 08:44 | 33.64559 | -118.33893 | 16547 ft | 421 kts | 95° |
| 2026-05-01 08:44 | 33.64434 | -118.30385 | 17071 ft | 423 kts | 88° |
| 2026-05-01 08:45 | 33.64441 | -118.26838 | 17600 ft | 427 kts | 87° |
| 2026-05-01 08:45 | 33.64588 | -118.23281 | 18088 ft | 428 kts | 78° |
| 2026-05-01 08:45 | 33.65050 | -118.20977 | 18420 ft | 427 kts | 69° |
| 2026-05-01 08:45 | 33.66272 | -118.17751 | 18887 ft | 425 kts | 55° |
| 2026-05-01 08:46 | 33.68767 | -118.14180 | 19504 ft | 421 kts | 37° |
| 2026-05-01 08:46 | 33.71082 | -118.12028 | 19983 ft | 422 kts | 34° |
| 2026-05-01 08:46 | 33.72642 | -118.10619 | 20285 ft | 423 kts | 33° |
| 2026-05-01 08:46 | 33.75045 | -118.08482 | 20720 ft | 426 kts | 33° |
| 2026-05-01 08:47 | 33.77400 | -118.06384 | 21170 ft | 428 kts | 33° |
| 2026-05-01 08:47 | 33.79795 | -118.04227 | 21610 ft | 431 kts | 33° |
| 2026-05-01 08:47 | 33.82207 | -118.02052 | 22041 ft | 433 kts | 33° |
| 2026-05-01 08:47 | 33.84625 | -117.99880 | 22480 ft | 436 kts | 33° |
| 2026-05-01 08:48 | 33.87064 | -117.97690 | 22902 ft | 438 kts | 33° |
| 2026-05-01 08:48 | 33.89508 | -117.95489 | 23297 ft | 441 kts | 33° |
| 2026-05-01 08:48 | 33.91980 | -117.93257 | 23666 ft | 443 kts | 33° |
| 2026-05-01 08:48 | 33.94413 | -117.91032 | 23980 ft | 446 kts | 33° |
| 2026-05-01 08:49 | 33.96889 | -117.88755 | 24301 ft | 448 kts | 33° |
| 2026-05-01 08:49 | 33.99377 | -117.86480 | 24590 ft | 450 kts | 33° |
| 2026-05-01 08:49 | 34.01872 | -117.84204 | 24899 ft | 452 kts | 33° |
| 2026-05-01 08:49 | 34.04388 | -117.81901 | 25194 ft | 454 kts | 33° |
| 2026-05-01 08:50 | 34.06911 | -117.79586 | 25489 ft | 457 kts | 33° |
| 2026-05-01 08:50 | 34.09325 | -117.77054 | 25775 ft | 464 kts | 42° |
| 2026-05-01 08:50 | 34.11430 | -117.74066 | 26033 ft | 470 kts | 46° |
| 2026-05-01 08:50 | 34.13502 | -117.71004 | 26372 ft | 472 kts | 46° |
| 2026-05-01 08:51 | 34.15578 | -117.67905 | 26674 ft | 474 kts | 46° |
| 2026-05-01 08:51 | 34.17661 | -117.64806 | 26957 ft | 476 kts | 46° |
| 2026-05-01 08:51 | 34.19735 | -117.61735 | 27277 ft | 478 kts | 46° |
| 2026-05-01 08:51 | 34.21842 | -117.58605 | 27590 ft | 480 kts | 45° |
| 2026-05-01 08:52 | 34.23951 | -117.55463 | 27878 ft | 482 kts | 46° |
| 2026-05-01 08:52 | 34.26069 | -117.52304 | 28162 ft | 485 kts | 45° |
| 2026-05-01 08:52 | 34.28208 | -117.49117 | 28465 ft | 487 kts | 45° |
| 2026-05-01 08:52 | 34.30347 | -117.45928 | 28767 ft | 490 kts | 45° |
| 2026-05-01 08:53 | 34.32492 | -117.42723 | 29098 ft | 492 kts | 45° |
| 2026-05-01 08:53 | 34.34658 | -117.39484 | 29378 ft | 494 kts | 45° |
| 2026-05-01 08:53 | 34.36823 | -117.36244 | 29661 ft | 497 kts | 45° |
| 2026-05-01 08:53 | 34.39003 | -117.32978 | 29972 ft | 499 kts | 45° |
| 2026-05-01 08:54 | 34.41158 | -117.29747 | 30201 ft | 501 kts | 45° |
| 2026-05-01 08:54 | 34.43353 | -117.26454 | 30445 ft | 503 kts | 45° |
| 2026-05-01 08:54 | 34.45558 | -117.23143 | 30741 ft | 506 kts | 45° |
| 2026-05-01 08:54 | 34.47772 | -117.19815 | 30977 ft | 508 kts | 45° |
| 2026-05-01 08:55 | 34.49993 | -117.16472 | 31180 ft | 510 kts | 45° |
| 2026-05-01 08:55 | 34.52225 | -117.13110 | 31435 ft | 512 kts | 45° |
| 2026-05-01 08:55 | 34.54461 | -117.09755 | 31787 ft | 511 kts | 44° |
| 2026-05-01 08:55 | 34.56764 | -117.06461 | 32144 ft | 510 kts | 44° |
| 2026-05-01 08:56 | 34.59016 | -117.03137 | 32512 ft | 511 kts | 45° |
| 2026-05-01 08:56 | 34.61280 | -116.99796 | 32850 ft | 511 kts | 44° |
| 2026-05-01 08:56 | 34.63532 | -116.96533 | 33204 ft | 510 kts | 44° |
| 2026-05-01 08:56 | 34.65814 | -116.93231 | 33570 ft | 510 kts | 44° |
| 2026-05-01 08:57 | 34.68088 | -116.89903 | 33947 ft | 511 kts | 44° |
| 2026-05-01 08:57 | 34.70353 | -116.86571 | 34279 ft | 511 kts | 44° |
| 2026-05-01 08:57 | 34.72627 | -116.83243 | 34569 ft | 511 kts | 44° |
| 2026-05-01 08:57 | 34.74910 | -116.79911 | 34867 ft | 512 kts | 44° |
| 2026-05-01 08:58 | 34.77181 | -116.76581 | 35173 ft | 512 kts | 44° |
| 2026-05-01 08:58 | 34.79452 | -116.73241 | 35480 ft | 512 kts | 44° |
| 2026-05-01 08:58 | 34.81726 | -116.69899 | 35756 ft | 513 kts | 43° |
| 2026-05-01 08:58 | 34.83973 | -116.66597 | 36051 ft | 512 kts | 43° |
| 2026-05-01 08:59 | 34.86288 | -116.63307 | 36317 ft | 508 kts | 40° |
| 2026-05-01 08:59 | 34.88689 | -116.60127 | 36546 ft | 510 kts | 40° |
| 2026-05-01 08:59 | 34.91070 | -116.56929 | 36867 ft | 509 kts | 40° |
| 2026-05-01 08:59 | 34.93460 | -116.53722 | 36910 ft | 514 kts | 40° |
| 2026-05-01 09:00 | 34.98261 | -116.47310 | 36890 ft | 509 kts | 40° |
| 2026-05-01 09:00 | 35.03017 | -116.40926 | 36871 ft | 506 kts | 40° |
| 2026-05-01 09:01 | 35.07761 | -116.34559 | 36865 ft | 507 kts | 40° |
| 2026-05-01 09:01 | 35.12470 | -116.28217 | 36868 ft | 508 kts | 40° |
| 2026-05-01 09:02 | 35.17232 | -116.21799 | 36883 ft | 509 kts | 40° |
| 2026-05-01 09:02 | 35.21960 | -116.15405 | 36884 ft | 505 kts | 40° |
| 2026-05-01 09:03 | 35.26688 | -116.09013 | 36884 ft | 506 kts | 40° |
| 2026-05-01 09:03 | 35.31398 | -116.02619 | 36882 ft | 505 kts | 40° |
| 2026-05-01 09:04 | 35.36075 | -115.96269 | 36898 ft | 504 kts | 40° |
| 2026-05-01 09:04 | 35.40778 | -115.89867 | 36910 ft | 505 kts | 40° |
| 2026-05-01 09:05 | 35.45480 | -115.83453 | 36932 ft | 505 kts | 40° |
| 2026-05-01 09:05 | 35.50182 | -115.77031 | 36933 ft | 505 kts | 40° |
| 2026-05-01 09:06 | 35.54838 | -115.70655 | 36951 ft | 505 kts | 40° |
| 2026-05-01 09:06 | 35.59526 | -115.64227 | 36950 ft | 505 kts | 40° |
| 2026-05-01 09:07 | 35.64234 | -115.57759 | 36963 ft | 508 kts | 40° |
| 2026-05-01 09:07 | 35.68944 | -115.51272 | 36973 ft | 509 kts | 40° |
| 2026-05-01 09:08 | 35.73654 | -115.44775 | 36970 ft | 509 kts | 41° |
| 2026-05-01 09:08 | 35.78367 | -115.38257 | 36975 ft | 509 kts | 41° |
| 2026-05-01 09:09 | 35.83072 | -115.31741 | 36982 ft | 509 kts | 40° |
| 2026-05-01 09:09 | 35.87770 | -115.25224 | 36991 ft | 513 kts | 41° |
| 2026-05-01 09:10 | 35.92507 | -115.18632 | 36994 ft | 514 kts | 41° |
| 2026-05-01 09:10 | 35.97258 | -115.12016 | 36995 ft | 514 kts | 41° |
| 2026-05-01 09:11 | 36.01995 | -115.05401 | 37000 ft | 514 kts | 41° |
| 2026-05-01 09:11 | 36.06726 | -114.98786 | 36945 ft | 513 kts | 41° |
| 2026-05-01 09:12 | 36.11440 | -114.92176 | 36889 ft | 511 kts | 41° |
| 2026-05-01 09:12 | 36.16123 | -114.85622 | 36886 ft | 509 kts | 38° |
| 2026-05-01 09:13 | 36.21601 | -114.80406 | 36917 ft | 490 kts | 20° |
| 2026-05-01 09:13 | 36.27619 | -114.76407 | 36878 ft | 490 kts | 20° |
| 2026-05-01 09:14 | 36.33639 | -114.72427 | 36863 ft | 490 kts | 20° |
| 2026-05-01 09:14 | 36.39648 | -114.68432 | 36853 ft | 490 kts | 20° |
| 2026-05-01 09:15 | 36.45630 | -114.64457 | 36845 ft | 491 kts | 20° |
| 2026-05-01 09:15 | 36.51667 | -114.60432 | 36840 ft | 491 kts | 21° |
| 2026-05-01 09:16 | 36.57677 | -114.56420 | 36836 ft | 489 kts | 21° |
| 2026-05-01 09:17 | 36.66703 | -114.50383 | 36850 ft | 491 kts | 21° |
| 2026-05-01 09:17 | 36.75553 | -114.43952 | 36861 ft | 495 kts | 25° |
| 2026-05-01 09:18 | 36.84293 | -114.37108 | 36862 ft | 494 kts | 26° |
| 2026-05-01 09:19 | 36.93039 | -114.30231 | 36881 ft | 497 kts | 26° |
| 2026-05-01 09:20 | 37.01781 | -114.23337 | 36916 ft | 496 kts | 26° |
| 2026-05-01 09:21 | 37.13449 | -114.14111 | 36914 ft | 496 kts | 26° |
| 2026-05-01 09:21 | 37.22202 | -114.07167 | 36932 ft | 496 kts | 26° |
| 2026-05-01 09:22 | 37.33863 | -113.97883 | 36965 ft | 497 kts | 27° |
| 2026-05-01 09:23 | 37.42634 | -113.90882 | 36966 ft | 497 kts | 27° |
| 2026-05-01 09:24 | 37.51399 | -113.83862 | 36991 ft | 498 kts | 27° |
| 2026-05-01 09:25 | 37.63042 | -113.74506 | 37018 ft | 495 kts | 27° |
| 2026-05-01 09:26 | 37.71785 | -113.67459 | 37028 ft | 497 kts | 27° |
| 2026-05-01 09:26 | 37.80507 | -113.60408 | 37038 ft | 498 kts | 27° |
| 2026-05-01 09:27 | 37.89256 | -113.53313 | 37040 ft | 496 kts | 27° |
| 2026-05-01 09:28 | 37.95146 | -113.48828 | 37060 ft | 489 kts | 21° |
| 2026-05-01 09:28 | 38.01236 | -113.44846 | 37046 ft | 493 kts | 22° |
| 2026-05-01 09:29 | 38.10414 | -113.38854 | 37046 ft | 495 kts | 22° |
| 2026-05-01 09:30 | 38.19543 | -113.32860 | 37055 ft | 494 kts | 22° |
| 2026-05-01 09:30 | 38.28702 | -113.26837 | 37087 ft | 493 kts | 22° |
| 2026-05-01 09:31 | 38.34806 | -113.22816 | 37105 ft | 493 kts | 22° |
| 2026-05-01 09:32 | 38.43957 | -113.16770 | 37129 ft | 495 kts | 22° |
| 2026-05-01 09:32 | 38.53136 | -113.10687 | 37124 ft | 495 kts | 22° |
| 2026-05-01 09:33 | 38.59222 | -113.06645 | 37112 ft | 496 kts | 23° |
| 2026-05-01 09:34 | 38.68385 | -113.00545 | 37053 ft | 494 kts | 23° |
| 2026-05-01 09:34 | 38.77529 | -112.94438 | 37054 ft | 494 kts | 23° |
| 2026-05-01 09:35 | 38.86680 | -112.88310 | 37070 ft | 494 kts | 23° |
| 2026-05-01 09:36 | 38.91745 | -112.84910 | 37060 ft | 493 kts | 23° |
| 2026-05-01 09:36 | 38.97827 | -112.80821 | 37067 ft | 492 kts | 23° |
| 2026-05-01 09:37 | 39.03907 | -112.76726 | 37068 ft | 495 kts | 23° |
| 2026-05-01 09:37 | 39.13100 | -112.70514 | 37065 ft | 497 kts | 23° |
| 2026-05-01 09:38 | 39.22244 | -112.64321 | 37068 ft | 496 kts | 23° |
| 2026-05-01 09:39 | 39.31403 | -112.58099 | 37084 ft | 496 kts | 23° |
| 2026-05-01 09:39 | 39.37503 | -112.53944 | 37139 ft | 495 kts | 23° |
| 2026-05-01 09:40 | 39.46638 | -112.47707 | 37064 ft | 495 kts | 23° |
| 2026-05-01 09:41 | 39.52749 | -112.43524 | 37065 ft | 498 kts | 23° |
| 2026-05-01 09:41 | 39.61918 | -112.37232 | 37060 ft | 497 kts | 23° |
| 2026-05-01 09:42 | 39.68027 | -112.33030 | 37066 ft | 497 kts | 23° |
| 2026-05-01 09:43 | 39.80250 | -112.24596 | 37083 ft | 497 kts | 24° |
| 2026-05-01 09:43 | 39.86327 | -112.20389 | 37072 ft | 496 kts | 24° |
| 2026-05-01 09:44 | 39.95463 | -112.14050 | 37080 ft | 496 kts | 24° |
| 2026-05-01 09:45 | 40.01567 | -112.09804 | 37076 ft | 498 kts | 24° |
| 2026-05-01 09:45 | 40.10649 | -112.03184 | 37109 ft | 498 kts | 26° |
| 2026-05-01 09:46 | 40.16679 | -111.98681 | 37132 ft | 499 kts | 26° |
| 2026-05-01 09:46 | 40.22642 | -111.94130 | 37141 ft | 499 kts | 26° |
| 2026-05-01 09:47 | 40.28666 | -111.89577 | 37157 ft | 499 kts | 26° |
| 2026-05-01 09:47 | 40.34655 | -111.85010 | 37137 ft | 497 kts | 26° |
| 2026-05-01 09:48 | 40.40634 | -111.80459 | 37128 ft | 496 kts | 26° |
| 2026-05-01 09:48 | 40.46610 | -111.75891 | 37140 ft | 498 kts | 27° |
| 2026-05-01 09:49 | 40.52608 | -111.71302 | 37153 ft | 499 kts | 27° |
| 2026-05-01 09:49 | 40.58559 | -111.66736 | 37132 ft | 497 kts | 27° |
| 2026-05-01 09:50 | 40.64529 | -111.62147 | 37126 ft | 497 kts | 27° |
| 2026-05-01 09:50 | 40.70508 | -111.57542 | 37110 ft | 497 kts | 27° |
| 2026-05-01 09:51 | 40.76475 | -111.52937 | 37136 ft | 497 kts | 27° |
| 2026-05-01 09:51 | 40.82440 | -111.48322 | 37122 ft | 496 kts | 27° |
| 2026-05-01 09:52 | 40.88356 | -111.43737 | 37124 ft | 496 kts | 27° |
| 2026-05-01 09:52 | 40.94309 | -111.39113 | 37145 ft | 496 kts | 27° |
| 2026-05-01 09:53 | 41.00270 | -111.34474 | 37158 ft | 496 kts | 28° |
| 2026-05-01 09:53 | 41.06207 | -111.29841 | 37169 ft | 493 kts | 28° |
| 2026-05-01 09:54 | 41.12124 | -111.25217 | 37201 ft | 494 kts | 28° |
| 2026-05-01 09:54 | 41.18042 | -111.20581 | 37224 ft | 494 kts | 28° |
| 2026-05-01 09:55 | 41.23930 | -111.15959 | 37249 ft | 494 kts | 28° |
| 2026-05-01 09:55 | 41.29836 | -111.11312 | 37243 ft | 491 kts | 28° |
| 2026-05-01 09:56 | 41.35714 | -111.06679 | 37240 ft | 491 kts | 28° |
| 2026-05-01 09:56 | 41.41602 | -111.02028 | 37230 ft | 491 kts | 28° |
| 2026-05-01 09:57 | 41.47483 | -110.97371 | 37226 ft | 492 kts | 28° |
| 2026-05-01 09:57 | 41.53346 | -110.92719 | 37211 ft | 489 kts | 29° |
| 2026-05-01 09:58 | 41.59194 | -110.88070 | 37211 ft | 488 kts | 29° |
| 2026-05-01 09:58 | 41.64986 | -110.83455 | 37220 ft | 488 kts | 29° |
| 2026-05-01 09:59 | 41.70823 | -110.78795 | 37220 ft | 489 kts | 29° |
| 2026-05-01 09:59 | 41.76656 | -110.74128 | 37226 ft | 486 kts | 30° |
| 2026-05-01 10:00 | 41.82457 | -110.69476 | 37236 ft | 486 kts | 30° |
| 2026-05-01 10:00 | 41.88255 | -110.64817 | 37240 ft | 486 kts | 30° |
| 2026-05-01 10:01 | 41.94062 | -110.60139 | 37264 ft | 486 kts | 30° |
| 2026-05-01 10:01 | 41.99838 | -110.55478 | 37257 ft | 482 kts | 30° |
| 2026-05-01 10:02 | 42.05590 | -110.50826 | 37255 ft | 483 kts | 30° |
| 2026-05-01 10:02 | 42.11348 | -110.46159 | 37262 ft | 483 kts | 30° |
| 2026-05-01 10:03 | 42.17097 | -110.41489 | 37260 ft | 482 kts | 30° |
| 2026-05-01 10:03 | 42.22801 | -110.36846 | 37261 ft | 479 kts | 31° |
| 2026-05-01 10:04 | 42.28509 | -110.32190 | 37269 ft | 479 kts | 31° |
| 2026-05-01 10:04 | 42.34218 | -110.27523 | 37277 ft | 479 kts | 31° |
| 2026-05-01 10:05 | 42.39922 | -110.22850 | 37282 ft | 479 kts | 31° |
| 2026-05-01 10:05 | 42.45616 | -110.18175 | 37291 ft | 477 kts | 31° |
| 2026-05-01 10:06 | 42.51281 | -110.13515 | 37297 ft | 477 kts | 31° |
| 2026-05-01 10:06 | 42.56952 | -110.08838 | 37290 ft | 477 kts | 31° |
| 2026-05-01 10:07 | 42.62594 | -110.04177 | 37290 ft | 477 kts | 31° |
| 2026-05-01 10:07 | 42.68258 | -109.99485 | 37288 ft | 475 kts | 31° |
| 2026-05-01 10:08 | 42.76732 | -109.92450 | 37288 ft | 476 kts | 31° |
| 2026-05-01 10:09 | 42.82388 | -109.87740 | 37292 ft | 477 kts | 31° |
| 2026-05-01 10:09 | 42.88058 | -109.83010 | 37297 ft | 478 kts | 31° |
| 2026-05-01 10:10 | 42.93686 | -109.78302 | 37275 ft | 476 kts | 31° |
| 2026-05-01 10:10 | 43.02159 | -109.71199 | 37278 ft | 475 kts | 31° |
| 2026-05-01 10:11 | 43.07783 | -109.66470 | 37280 ft | 475 kts | 31° |
| 2026-05-01 10:11 | 43.13413 | -109.61726 | 37269 ft | 476 kts | 32° |
| 2026-05-01 10:12 | 43.18102 | -109.57767 | 37273 ft | 476 kts | 32° |
| 2026-05-01 10:13 | 43.27530 | -109.49785 | 37263 ft | 477 kts | 32° |
| 2026-05-01 10:13 | 43.33130 | -109.45029 | 37265 ft | 475 kts | 32° |
| 2026-05-01 10:14 | 43.41465 | -109.37933 | 37253 ft | 468 kts | 32° |
| 2026-05-01 10:14 | 43.47007 | -109.33202 | 37233 ft | 469 kts | 32° |
| 2026-05-01 10:15 | 43.52574 | -109.28438 | 37249 ft | 470 kts | 32° |
| 2026-05-01 10:15 | 43.58114 | -109.23687 | 37236 ft | 466 kts | 32° |
| 2026-05-01 10:16 | 43.63562 | -109.19005 | 37247 ft | 464 kts | 32° |
| 2026-05-01 10:17 | 43.71801 | -109.11905 | 37230 ft | 465 kts | 32° |
| 2026-05-01 10:17 | 43.80027 | -109.04793 | 37214 ft | 464 kts | 32° |
| 2026-05-01 10:18 | 43.88228 | -108.97680 | 37204 ft | 463 kts | 32° |
| 2026-05-01 10:19 | 43.93651 | -108.92963 | 37208 ft | 463 kts | 32° |
| 2026-05-01 10:19 | 43.99115 | -108.88200 | 37197 ft | 463 kts | 32° |
| 2026-05-01 10:20 | 44.07280 | -108.81062 | 37209 ft | 460 kts | 32° |
| 2026-05-01 10:20 | 44.12687 | -108.76323 | 37203 ft | 458 kts | 32° |
| 2026-05-01 10:21 | 44.20751 | -108.69235 | 37199 ft | 459 kts | 32° |
| 2026-05-01 10:22 | 44.28850 | -108.62094 | 37215 ft | 457 kts | 32° |
| 2026-05-01 10:23 | 44.36901 | -108.54971 | 37223 ft | 457 kts | 32° |
| 2026-05-01 10:23 | 44.44089 | -108.48591 | 37226 ft | 457 kts | 32° |
| 2026-05-01 10:24 | 44.55502 | -108.41119 | 37232 ft | 457 kts | 18° |
| 2026-05-01 10:25 | 44.67590 | -108.35610 | 37227 ft | 459 kts | 18° |
| 2026-05-01 10:26 | 44.73647 | -108.32838 | 37235 ft | 456 kts | 18° |
| 2026-05-01 10:27 | 44.85703 | -108.27307 | 37212 ft | 455 kts | 18° |
| 2026-05-01 10:28 | 44.94725 | -108.23152 | 37170 ft | 453 kts | 18° |
| 2026-05-01 10:28 | 45.03669 | -108.19018 | 37147 ft | 452 kts | 18° |
| 2026-05-01 10:29 | 45.12651 | -108.14853 | 37142 ft | 452 kts | 18° |
| 2026-05-01 10:30 | 45.24580 | -108.09302 | 37151 ft | 451 kts | 18° |
| 2026-05-01 10:31 | 45.36502 | -108.03728 | 37145 ft | 451 kts | 18° |
| 2026-05-01 10:32 | 45.45440 | -107.99533 | 37143 ft | 450 kts | 18° |
| 2026-05-01 10:33 | 45.57331 | -107.93929 | 37160 ft | 449 kts | 18° |
| 2026-05-01 10:34 | 45.66234 | -107.89719 | 37174 ft | 449 kts | 18° |
| 2026-05-01 10:34 | 45.72125 | -107.86924 | 37168 ft | 449 kts | 18° |
| 2026-05-01 10:35 | 45.81014 | -107.82696 | 37158 ft | 448 kts | 18° |
| 2026-05-01 10:35 | 45.86935 | -107.79872 | 37151 ft | 448 kts | 18° |
| 2026-05-01 10:36 | 45.95820 | -107.75621 | 37153 ft | 449 kts | 18° |
| 2026-05-01 10:37 | 46.01760 | -107.72773 | 37146 ft | 450 kts | 18° |
| 2026-05-01 10:37 | 46.10610 | -107.68515 | 37160 ft | 446 kts | 18° |
| 2026-05-01 10:38 | 46.16504 | -107.65672 | 37154 ft | 446 kts | 18° |
| 2026-05-01 10:38 | 46.22390 | -107.62826 | 37146 ft | 446 kts | 18° |
| 2026-05-01 10:39 | 46.28276 | -107.59973 | 37153 ft | 445 kts | 18° |
| 2026-05-01 10:39 | 46.34156 | -107.57117 | 37150 ft | 445 kts | 18° |
| 2026-05-01 10:40 | 46.40026 | -107.54260 | 37155 ft | 445 kts | 18° |
| 2026-05-01 10:40 | 46.45854 | -107.51417 | 37146 ft | 444 kts | 18° |
| 2026-05-01 10:41 | 46.51692 | -107.48561 | 37151 ft | 443 kts | 18° |
| 2026-05-01 10:42 | 46.60464 | -107.44260 | 37151 ft | 444 kts | 18° |
| 2026-05-01 10:42 | 46.66323 | -107.41378 | 37150 ft | 444 kts | 18° |
| 2026-05-01 10:43 | 46.72153 | -107.38504 | 37152 ft | 445 kts | 18° |
| 2026-05-01 10:43 | 46.78014 | -107.35608 | 37151 ft | 445 kts | 18° |
| 2026-05-01 10:44 | 46.83873 | -107.32707 | 37157 ft | 443 kts | 18° |
| 2026-05-01 10:44 | 46.89698 | -107.29816 | 37156 ft | 442 kts | 18° |
| 2026-05-01 10:45 | 46.95533 | -107.26913 | 37150 ft | 444 kts | 18° |
| 2026-05-01 10:45 | 47.01386 | -107.23994 | 37153 ft | 444 kts | 18° |
| 2026-05-01 10:46 | 47.07206 | -107.21086 | 37154 ft | 444 kts | 18° |
| 2026-05-01 10:46 | 47.13067 | -107.18150 | 37139 ft | 444 kts | 18° |
| 2026-05-01 10:47 | 47.18922 | -107.15209 | 37147 ft | 444 kts | 18° |
| 2026-05-01 10:47 | 47.24758 | -107.12272 | 37120 ft | 442 kts | 18° |
| 2026-05-01 10:48 | 47.30538 | -107.09356 | 37112 ft | 442 kts | 18° |
| 2026-05-01 10:48 | 47.36353 | -107.06416 | 37112 ft | 442 kts | 18° |
| 2026-05-01 10:49 | 47.42191 | -107.03457 | 37107 ft | 443 kts | 18° |
| 2026-05-01 10:49 | 47.48032 | -107.00490 | 37120 ft | 444 kts | 18° |
| 2026-05-01 10:50 | 47.53887 | -106.97509 | 37133 ft | 445 kts | 18° |
| 2026-05-01 10:50 | 47.59749 | -106.94517 | 37147 ft | 444 kts | 18° |
| 2026-05-01 10:51 | 47.65528 | -106.91560 | 37153 ft | 440 kts | 18° |
| 2026-05-01 10:51 | 47.71320 | -106.88589 | 37154 ft | 440 kts | 18° |
| 2026-05-01 10:52 | 47.77120 | -106.85608 | 37152 ft | 441 kts | 18° |
| 2026-05-01 10:52 | 47.82919 | -106.82620 | 37156 ft | 441 kts | 18° |
| 2026-05-01 10:53 | 47.88723 | -106.79623 | 37154 ft | 441 kts | 18° |
| 2026-05-01 10:53 | 47.94494 | -106.76635 | 37147 ft | 442 kts | 18° |
| 2026-05-01 10:54 | 48.00302 | -106.73621 | 37142 ft | 441 kts | 18° |
| 2026-05-01 10:54 | 48.06100 | -106.70605 | 37135 ft | 441 kts | 18° |
| 2026-05-01 10:55 | 48.11898 | -106.67582 | 37124 ft | 442 kts | 18° |
| 2026-05-01 10:55 | 48.17711 | -106.64544 | 37130 ft | 443 kts | 19° |
| 2026-05-01 10:56 | 48.23458 | -106.61240 | 37143 ft | 443 kts | 23° |
| 2026-05-01 10:56 | 48.29060 | -106.57495 | 37132 ft | 443 kts | 23° |
| 2026-05-01 10:57 | 48.34699 | -106.53693 | 37159 ft | 444 kts | 23° |
| 2026-05-01 10:57 | 48.40330 | -106.49895 | 37149 ft | 442 kts | 23° |
| 2026-05-01 10:58 | 48.45949 | -106.46095 | 37159 ft | 442 kts | 23° |
| 2026-05-01 10:58 | 48.51514 | -106.42320 | 37170 ft | 442 kts | 23° |
| 2026-05-01 10:59 | 48.57121 | -106.38510 | 37172 ft | 442 kts | 23° |
| 2026-05-01 10:59 | 48.62733 | -106.34686 | 37171 ft | 443 kts | 23° |
| 2026-05-01 11:00 | 48.68355 | -106.30846 | 37176 ft | 444 kts | 23° |
| 2026-05-01 11:00 | 48.73985 | -106.26990 | 37181 ft | 441 kts | 23° |
| 2026-05-01 11:01 | 48.79588 | -106.23145 | 37185 ft | 440 kts | 23° |
| 2026-05-01 11:01 | 48.85167 | -106.19306 | 37177 ft | 441 kts | 23° |
| 2026-05-01 11:02 | 48.90740 | -106.15462 | 37191 ft | 442 kts | 23° |
| 2026-05-01 11:02 | 48.96345 | -106.11586 | 37195 ft | 442 kts | 23° |
| 2026-05-01 11:03 | 49.01952 | -106.07699 | 37196 ft | 442 kts | 23° |
| 2026-05-01 11:03 | 49.07554 | -106.03806 | 37196 ft | 442 kts | 23° |
| 2026-05-01 11:04 | 49.13101 | -105.99942 | 37185 ft | 440 kts | 23° |
| 2026-05-01 11:04 | 49.18676 | -105.96049 | 37197 ft | 440 kts | 23° |
| 2026-05-01 11:05 | 49.24250 | -105.92146 | 37194 ft | 440 kts | 23° |
| 2026-05-01 11:05 | 49.29789 | -105.88258 | 37192 ft | 440 kts | 23° |
| 2026-05-01 11:06 | 49.35364 | -105.84336 | 37184 ft | 442 kts | 23° |
| 2026-05-01 11:06 | 49.40974 | -105.80379 | 37199 ft | 444 kts | 23° |
| 2026-05-01 11:07 | 49.49347 | -105.74453 | 37199 ft | 439 kts | 23° |
| 2026-05-01 11:07 | 49.54897 | -105.70515 | 37188 ft | 439 kts | 23° |
| 2026-05-01 11:08 | 49.60415 | -105.66587 | 37187 ft | 440 kts | 23° |
| 2026-05-01 11:09 | 49.68793 | -105.60606 | 37194 ft | 443 kts | 23° |
| 2026-05-01 11:09 | 49.74385 | -105.56601 | 37187 ft | 442 kts | 23° |
| 2026-05-01 11:10 | 49.82735 | -105.50603 | 37185 ft | 439 kts | 23° |
| 2026-05-01 11:10 | 49.88271 | -105.46613 | 37194 ft | 439 kts | 23° |
| 2026-05-01 11:11 | 49.93825 | -105.42599 | 37185 ft | 440 kts | 23° |
| 2026-05-01 11:11 | 49.98431 | -105.39264 | 37183 ft | 440 kts | 23° |
| 2026-05-01 11:12 | 50.04871 | -105.34588 | 37161 ft | 439 kts | 23° |
| 2026-05-01 11:12 | 50.09477 | -105.31235 | 37149 ft | 438 kts | 23° |
| 2026-05-01 11:13 | 50.15001 | -105.27203 | 37169 ft | 438 kts | 23° |
| 2026-05-01 11:13 | 50.20516 | -105.23170 | 37148 ft | 437 kts | 23° |
| 2026-05-01 11:14 | 50.26042 | -105.19117 | 37147 ft | 438 kts | 23° |
| 2026-05-01 11:14 | 50.31573 | -105.15050 | 37152 ft | 440 kts | 23° |
| 2026-05-01 11:15 | 50.37092 | -105.10982 | 37150 ft | 441 kts | 23° |
| 2026-05-01 11:15 | 50.42642 | -105.06879 | 37157 ft | 440 kts | 23° |
| 2026-05-01 11:16 | 50.48177 | -105.02778 | 37155 ft | 439 kts | 23° |
| 2026-05-01 11:16 | 50.53661 | -104.98703 | 37133 ft | 438 kts | 23° |
| 2026-05-01 11:17 | 50.59161 | -104.94607 | 37132 ft | 437 kts | 23° |
| 2026-05-01 11:17 | 50.64657 | -104.90502 | 37152 ft | 438 kts | 23° |
| 2026-05-01 11:18 | 50.69806 | -104.85315 | 37156 ft | 443 kts | 33° |
| 2026-05-01 11:18 | 50.74763 | -104.79505 | 37157 ft | 443 kts | 33° |
| 2026-05-01 11:19 | 50.79691 | -104.73682 | 37160 ft | 442 kts | 33° |
| 2026-05-01 11:19 | 50.84608 | -104.67869 | 37153 ft | 442 kts | 33° |
| 2026-05-01 11:20 | 50.89493 | -104.62072 | 37136 ft | 440 kts | 33° |
| 2026-05-01 11:20 | 50.94390 | -104.56251 | 37139 ft | 441 kts | 33° |
| 2026-05-01 11:21 | 50.99303 | -104.50392 | 37141 ft | 442 kts | 33° |
| 2026-05-01 11:21 | 51.04231 | -104.44500 | 37137 ft | 443 kts | 33° |
| 2026-05-01 11:22 | 51.09124 | -104.38632 | 37140 ft | 443 kts | 33° |
| 2026-05-01 11:22 | 51.14040 | -104.32721 | 37131 ft | 442 kts | 33° |
| 2026-05-01 11:23 | 51.18924 | -104.26834 | 37122 ft | 439 kts | 33° |
| 2026-05-01 11:23 | 51.23795 | -104.20947 | 37118 ft | 440 kts | 33° |
| 2026-05-01 11:24 | 51.28680 | -104.15025 | 37118 ft | 440 kts | 33° |
| 2026-05-01 11:25 | 51.35971 | -104.06158 | 37118 ft | 441 kts | 33° |
| 2026-05-01 11:25 | 51.43313 | -103.97191 | 37123 ft | 441 kts | 34° |
| 2026-05-01 11:26 | 51.50627 | -103.88222 | 37109 ft | 441 kts | 34° |
| 2026-05-01 11:27 | 51.55508 | -103.82214 | 37112 ft | 442 kts | 34° |
| 2026-05-01 11:27 | 51.60398 | -103.76180 | 37117 ft | 443 kts | 34° |
| 2026-05-01 11:28 | 51.65260 | -103.70163 | 37116 ft | 443 kts | 34° |
| 2026-05-01 11:28 | 51.70153 | -103.64092 | 37106 ft | 444 kts | 34° |
| 2026-05-01 11:29 | 51.77472 | -103.54978 | 37115 ft | 443 kts | 34° |
| 2026-05-01 11:30 | 51.84783 | -103.45835 | 37123 ft | 444 kts | 34° |
| 2026-05-01 11:30 | 51.89674 | -103.39697 | 37119 ft | 444 kts | 34° |
| 2026-05-01 11:31 | 51.94523 | -103.33594 | 37123 ft | 444 kts | 34° |
| 2026-05-01 11:31 | 51.99403 | -103.27437 | 37121 ft | 445 kts | 34° |
| 2026-05-01 11:32 | 52.04283 | -103.21260 | 37122 ft | 444 kts | 34° |
| 2026-05-01 11:32 | 52.09165 | -103.15064 | 37119 ft | 445 kts | 34° |
| 2026-05-01 11:33 | 52.14025 | -103.08877 | 37121 ft | 447 kts | 34° |
| 2026-05-01 11:33 | 52.18914 | -103.02637 | 37124 ft | 446 kts | 34° |
| 2026-05-01 11:34 | 52.23793 | -102.96390 | 37122 ft | 445 kts | 34° |
| 2026-05-01 11:34 | 52.28668 | -102.90132 | 37130 ft | 444 kts | 34° |
| 2026-05-01 11:35 | 52.33516 | -102.83889 | 37120 ft | 444 kts | 34° |
| 2026-05-01 11:35 | 52.38379 | -102.77612 | 37128 ft | 446 kts | 34° |
| 2026-05-01 11:36 | 52.43219 | -102.71343 | 37132 ft | 446 kts | 34° |
| 2026-05-01 11:36 | 52.48081 | -102.65028 | 37125 ft | 446 kts | 34° |
| 2026-05-01 11:37 | 52.52938 | -102.58702 | 37126 ft | 445 kts | 34° |
| 2026-05-01 11:37 | 52.57786 | -102.52369 | 37129 ft | 444 kts | 34° |
| 2026-05-01 11:38 | 52.62615 | -102.46044 | 37128 ft | 444 kts | 34° |
| 2026-05-01 11:38 | 52.67455 | -102.39684 | 37121 ft | 445 kts | 34° |
| 2026-05-01 11:39 | 52.72302 | -102.33296 | 37130 ft | 446 kts | 34° |
| 2026-05-01 11:39 | 52.77116 | -102.26935 | 37136 ft | 446 kts | 34° |
| 2026-05-01 11:40 | 52.81934 | -102.20548 | 37137 ft | 446 kts | 34° |
| 2026-05-01 11:40 | 52.86758 | -102.14135 | 37156 ft | 445 kts | 34° |
| 2026-05-01 11:41 | 52.91564 | -102.07726 | 37152 ft | 443 kts | 34° |
| 2026-05-01 11:41 | 52.96376 | -102.01294 | 37154 ft | 443 kts | 35° |
| 2026-05-01 11:42 | 53.01167 | -101.94868 | 37152 ft | 443 kts | 35° |
| 2026-05-01 11:42 | 53.05957 | -101.88425 | 37156 ft | 443 kts | 35° |
| 2026-05-01 11:43 | 53.10752 | -101.81956 | 37159 ft | 443 kts | 35° |
| 2026-05-01 11:43 | 53.15543 | -101.75473 | 37164 ft | 443 kts | 35° |
| 2026-05-01 11:44 | 53.22697 | -101.65758 | 37166 ft | 445 kts | 35° |
| 2026-05-01 11:44 | 53.27505 | -101.59202 | 37168 ft | 446 kts | 35° |
| 2026-05-01 11:45 | 53.32310 | -101.52633 | 37174 ft | 445 kts | 35° |
| 2026-05-01 11:45 | 53.37102 | -101.46062 | 37177 ft | 444 kts | 35° |
| 2026-05-01 11:46 | 53.41853 | -101.39527 | 37221 ft | 444 kts | 35° |
| 2026-05-01 11:46 | 53.46630 | -101.32936 | 37190 ft | 444 kts | 35° |
| 2026-05-01 11:47 | 53.51413 | -101.26319 | 37189 ft | 446 kts | 35° |
| 2026-05-01 11:47 | 53.56201 | -101.19671 | 37200 ft | 446 kts | 35° |
| 2026-05-01 11:48 | 53.60998 | -101.12995 | 37201 ft | 447 kts | 35° |
| 2026-05-01 11:48 | 53.65765 | -101.06337 | 37214 ft | 446 kts | 35° |
| 2026-05-01 11:49 | 53.70546 | -100.99640 | 37211 ft | 446 kts | 35° |
| 2026-05-01 11:49 | 53.75316 | -100.92937 | 37198 ft | 445 kts | 35° |
| 2026-05-01 11:50 | 53.80062 | -100.86252 | 37206 ft | 447 kts | 35° |
| 2026-05-01 11:50 | 53.84842 | -100.79492 | 37209 ft | 448 kts | 35° |
| 2026-05-01 11:51 | 53.89632 | -100.72702 | 37214 ft | 448 kts | 36° |
| 2026-05-01 11:51 | 53.94421 | -100.65890 | 37214 ft | 448 kts | 36° |
| 2026-05-01 11:52 | 53.99166 | -100.59120 | 37217 ft | 448 kts | 36° |
| 2026-05-01 11:52 | 54.03936 | -100.52294 | 37225 ft | 448 kts | 36° |
| 2026-05-01 11:53 | 54.08708 | -100.45443 | 37226 ft | 449 kts | 36° |
| 2026-05-01 11:53 | 54.13485 | -100.38564 | 37220 ft | 450 kts | 36° |
| 2026-05-01 11:54 | 54.18271 | -100.31650 | 37225 ft | 450 kts | 36° |
| 2026-05-01 11:54 | 54.23043 | -100.24734 | 37229 ft | 449 kts | 36° |
| 2026-05-01 11:55 | 54.27771 | -100.17861 | 37230 ft | 448 kts | 36° |
| 2026-05-01 11:55 | 54.32521 | -100.10934 | 37237 ft | 447 kts | 36° |
| 2026-05-01 11:56 | 54.37266 | -100.03995 | 37235 ft | 450 kts | 36° |
| 2026-05-01 11:56 | 54.42029 | -99.97004 | 37232 ft | 451 kts | 36° |
| 2026-05-01 11:57 | 54.45988 | -99.91177 | 37237 ft | 451 kts | 36° |
| 2026-05-01 11:57 | 54.51554 | -99.82959 | 37242 ft | 451 kts | 36° |
| 2026-05-01 11:58 | 54.56285 | -99.75950 | 37242 ft | 451 kts | 36° |
| 2026-05-01 11:59 | 54.63424 | -99.65330 | 37234 ft | 451 kts | 36° |
| 2026-05-01 11:59 | 54.68164 | -99.58252 | 37246 ft | 451 kts | 36° |
| 2026-05-01 12:00 | 54.75282 | -99.47579 | 37244 ft | 452 kts | 36° |
| 2026-05-01 12:01 | 54.82411 | -99.36837 | 37251 ft | 453 kts | 36° |
| 2026-05-01 12:01 | 54.86361 | -99.30863 | 37252 ft | 453 kts | 36° |
| 2026-05-01 12:02 | 54.91109 | -99.23661 | 37252 ft | 454 kts | 37° |
| 2026-05-01 12:02 | 54.95862 | -99.16427 | 37247 ft | 453 kts | 36° |
| 2026-05-01 12:03 | 55.00584 | -99.09218 | 37249 ft | 455 kts | 37° |
| 2026-05-01 12:03 | 55.05335 | -99.01939 | 37250 ft | 454 kts | 37° |
| 2026-05-01 12:04 | 55.10079 | -98.94648 | 37247 ft | 453 kts | 37° |
| 2026-05-01 12:04 | 55.14795 | -98.87375 | 37246 ft | 452 kts | 37° |
| 2026-05-01 12:05 | 55.19514 | -98.80076 | 37254 ft | 452 kts | 37° |
| 2026-05-01 12:05 | 55.26571 | -98.69115 | 37253 ft | 455 kts | 37° |
| 2026-05-01 12:06 | 55.31310 | -98.61721 | 37253 ft | 456 kts | 37° |
| 2026-05-01 12:06 | 55.36054 | -98.54297 | 37253 ft | 456 kts | 37° |
| 2026-05-01 12:07 | 55.40785 | -98.46867 | 37329 ft | 455 kts | 37° |
| 2026-05-01 12:07 | 55.43127 | -98.43177 | 37840 ft | 450 kts | 37° |
| 2026-05-01 12:07 | 55.45468 | -98.39489 | 38049 ft | 452 kts | 38° |
| 2026-05-01 12:08 | 55.47814 | -98.35787 | 38335 ft | 454 kts | 38° |
| 2026-05-01 12:08 | 55.50143 | -98.32101 | 38502 ft | 457 kts | 38° |
| 2026-05-01 12:08 | 55.52512 | -98.28345 | 38690 ft | 459 kts | 38° |
| 2026-05-01 12:08 | 55.54895 | -98.24562 | 38922 ft | 460 kts | 38° |
| 2026-05-01 12:09 | 55.57284 | -98.20764 | 39064 ft | 463 kts | 39° |
| 2026-05-01 12:09 | 55.59684 | -98.16943 | 39233 ft | 464 kts | 39° |
| 2026-05-01 12:09 | 55.64528 | -98.09205 | 39224 ft | 469 kts | 39° |
| 2026-05-01 12:10 | 55.71713 | -97.97679 | 39214 ft | 464 kts | 39° |
| 2026-05-01 12:11 | 55.78898 | -97.86094 | 39223 ft | 466 kts | 39° |
| 2026-05-01 12:11 | 55.83377 | -97.77756 | 39221 ft | 471 kts | 46° |
| 2026-05-01 12:12 | 55.87623 | -97.68854 | 39236 ft | 471 kts | 46° |
| 2026-05-01 12:12 | 55.91844 | -97.59935 | 39240 ft | 471 kts | 46° |
| 2026-05-01 12:13 | 55.96064 | -97.51006 | 39246 ft | 470 kts | 46° |
| 2026-05-01 12:13 | 56.00274 | -97.42055 | 39263 ft | 470 kts | 46° |
| 2026-05-01 12:14 | 56.04455 | -97.33138 | 39263 ft | 471 kts | 47° |
| 2026-05-01 12:14 | 56.08687 | -97.24071 | 39259 ft | 472 kts | 47° |
| 2026-05-01 12:15 | 56.12876 | -97.15070 | 39261 ft | 474 kts | 47° |
| 2026-05-01 12:15 | 56.17100 | -97.05955 | 39257 ft | 475 kts | 47° |
| 2026-05-01 12:16 | 56.21323 | -96.96808 | 39261 ft | 475 kts | 47° |